sensor_id;sensor_type;location;lat;lon;timestamp;P1;durP1;ratioP1;P2;durP2;ratioP2
25481;SDS011;13395;50.752;4.268;2023-09-19T00:00:05;9.48;;;1.70;;
25481;SDS011;13395;50.752;4.268;2023-09-19T00:02:32;8.82;;;2.00;;
25481;SDS011;13395;50.752;4.268;2023-09-19T00:04:58;7.88;;;2.45;;
25481;SDS011;13395;50.752;4.268;2023-09-19T00:07:23;13.60;;;1.85;;
25481;SDS011;13395;50.752;4.268;2023-09-19T00:09:49;16.70;;;2.47;;
25481;SDS011;13395;50.752;4.268;2023-09-19T00:12:15;12.52;;;2.15;;
25481;SDS011;13395;50.752;4.268;2023-09-19T00:14:40;10.27;;;2.38;;
25481;SDS011;13395;50.752;4.268;2023-09-19T00:17:06;7.25;;;1.88;;
25481;SDS011;13395;50.752;4.268;2023-09-19T00:19:33;9.75;;;2.22;;
25481;SDS011;13395;50.752;4.268;2023-09-19T00:21:59;11.80;;;2.22;;
25481;SDS011;13395;50.752;4.268;2023-09-19T00:24:26;9.75;;;2.45;;
25481;SDS011;13395;50.752;4.268;2023-09-19T00:26:53;10.10;;;2.38;;
25481;SDS011;13395;50.752;4.268;2023-09-19T00:29:20;12.35;;;2.22;;
25481;SDS011;13395;50.752;4.268;2023-09-19T00:31:46;10.30;;;1.80;;
25481;SDS011;13395;50.752;4.268;2023-09-19T00:34:11;13.65;;;1.92;;
25481;SDS011;13395;50.752;4.268;2023-09-19T00:36:38;9.05;;;2.03;;
25481;SDS011;13395;50.752;4.268;2023-09-19T00:39:05;12.65;;;2.08;;
25481;SDS011;13395;50.752;4.268;2023-09-19T00:41:32;8.15;;;2.00;;
25481;SDS011;13395;50.752;4.268;2023-09-19T00:44:00;11.52;;;2.05;;
25481;SDS011;13395;50.752;4.268;2023-09-19T00:46:27;13.32;;;1.90;;
25481;SDS011;13395;50.752;4.268;2023-09-19T00:48:53;14.00;;;3.17;;
25481;SDS011;13395;50.752;4.268;2023-09-19T00:51:19;10.35;;;2.53;;
25481;SDS011;13395;50.752;4.268;2023-09-19T00:53:47;7.80;;;2.60;;
25481;SDS011;13395;50.752;4.268;2023-09-19T00:56:13;10.23;;;2.65;;
25481;SDS011;13395;50.752;4.268;2023-09-19T00:58:40;9.18;;;1.90;;
25481;SDS011;13395;50.752;4.268;2023-09-19T01:01:05;10.82;;;2.15;;
25481;SDS011;13395;50.752;4.268;2023-09-19T01:03:34;11.25;;;1.80;;
25481;SDS011;13395;50.752;4.268;2023-09-19T01:06:02;16.45;;;1.92;;
25481;SDS011;13395;50.752;4.268;2023-09-19T01:08:28;14.05;;;3.00;;
25481;SDS011;13395;50.752;4.268;2023-09-19T01:11:03;12.02;;;2.17;;
25481;SDS011;13395;50.752;4.268;2023-09-19T01:19:01;14.02;;;2.08;;
25481;SDS011;13395;50.752;4.268;2023-09-19T01:21:52;13.77;;;2.30;;
25481;SDS011;13395;50.752;4.268;2023-09-19T01:27:44;13.18;;;3.05;;
25481;SDS011;13395;50.752;4.268;2023-09-19T01:30:24;13.02;;;2.22;;
25481;SDS011;13395;50.752;4.268;2023-09-19T01:32:54;16.23;;;2.10;;
25481;SDS011;13395;50.752;4.268;2023-09-19T01:35:20;8.10;;;1.75;;
25481;SDS011;13395;50.752;4.268;2023-09-19T01:37:45;11.07;;;2.50;;
25481;SDS011;13395;50.752;4.268;2023-09-19T01:40:14;9.77;;;2.20;;
25481;SDS011;13395;50.752;4.268;2023-09-19T01:42:44;10.68;;;2.40;;
25481;SDS011;13395;50.752;4.268;2023-09-19T01:50:44;17.42;;;2.53;;
25481;SDS011;13395;50.752;4.268;2023-09-19T01:53:24;15.32;;;2.22;;
25481;SDS011;13395;50.752;4.268;2023-09-19T01:55:58;11.63;;;2.75;;
25481;SDS011;13395;50.752;4.268;2023-09-19T01:58:37;10.52;;;1.77;;
25481;SDS011;13395;50.752;4.268;2023-09-19T02:01:11;15.00;;;2.15;;
25481;SDS011;13395;50.752;4.268;2023-09-19T02:03:41;12.80;;;2.47;;
25481;SDS011;13395;50.752;4.268;2023-09-19T02:06:12;15.40;;;2.22;;
25481;SDS011;13395;50.752;4.268;2023-09-19T02:08:39;14.70;;;2.88;;
25481;SDS011;13395;50.752;4.268;2023-09-19T02:11:05;12.40;;;1.90;;
25481;SDS011;13395;50.752;4.268;2023-09-19T02:13:31;14.20;;;2.22;;
25481;SDS011;13395;50.752;4.268;2023-09-19T02:15:56;12.07;;;2.25;;
25481;SDS011;13395;50.752;4.268;2023-09-19T02:18:22;15.20;;;2.58;;
25481;SDS011;13395;50.752;4.268;2023-09-19T02:20:48;14.90;;;3.30;;
25481;SDS011;13395;50.752;4.268;2023-09-19T02:23:14;12.43;;;2.45;;
25481;SDS011;13395;50.752;4.268;2023-09-19T02:25:40;10.50;;;3.03;;
25481;SDS011;13395;50.752;4.268;2023-09-19T02:28:09;13.77;;;2.50;;
25481;SDS011;13395;50.752;4.268;2023-09-19T02:30:35;14.18;;;3.10;;
25481;SDS011;13395;50.752;4.268;2023-09-19T02:33:01;14.27;;;2.45;;
25481;SDS011;13395;50.752;4.268;2023-09-19T02:35:28;16.67;;;2.55;;
25481;SDS011;13395;50.752;4.268;2023-09-19T02:37:57;19.90;;;3.63;;
25481;SDS011;13395;50.752;4.268;2023-09-19T02:40:23;12.32;;;2.85;;
25481;SDS011;13395;50.752;4.268;2023-09-19T02:42:53;16.25;;;3.15;;
25481;SDS011;13395;50.752;4.268;2023-09-19T02:45:19;15.68;;;2.55;;
25481;SDS011;13395;50.752;4.268;2023-09-19T02:47:45;18.00;;;2.97;;
25481;SDS011;13395;50.752;4.268;2023-09-19T02:50:12;11.32;;;1.92;;
25481;SDS011;13395;50.752;4.268;2023-09-19T02:52:44;13.52;;;2.60;;
25481;SDS011;13395;50.752;4.268;2023-09-19T02:55:12;11.85;;;2.40;;
25481;SDS011;13395;50.752;4.268;2023-09-19T02:57:52;14.23;;;2.15;;
25481;SDS011;13395;50.752;4.268;2023-09-19T03:00:21;11.18;;;2.00;;
25481;SDS011;13395;50.752;4.268;2023-09-19T03:02:52;15.88;;;3.45;;
25481;SDS011;13395;50.752;4.268;2023-09-19T03:05:20;9.80;;;2.40;;
25481;SDS011;13395;50.752;4.268;2023-09-19T03:07:47;16.48;;;2.63;;
25481;SDS011;13395;50.752;4.268;2023-09-19T03:10:16;11.60;;;2.20;;
25481;SDS011;13395;50.752;4.268;2023-09-19T03:12:42;12.65;;;2.45;;
25481;SDS011;13395;50.752;4.268;2023-09-19T03:15:08;9.80;;;1.90;;
25481;SDS011;13395;50.752;4.268;2023-09-19T03:17:34;15.10;;;2.67;;
25481;SDS011;13395;50.752;4.268;2023-09-19T03:20:00;9.98;;;1.90;;
25481;SDS011;13395;50.752;4.268;2023-09-19T03:22:27;10.50;;;2.10;;
25481;SDS011;13395;50.752;4.268;2023-09-19T03:24:53;14.32;;;2.50;;
25481;SDS011;13395;50.752;4.268;2023-09-19T03:27:19;10.07;;;2.33;;
25481;SDS011;13395;50.752;4.268;2023-09-19T03:29:45;12.00;;;2.97;;
25481;SDS011;13395;50.752;4.268;2023-09-19T03:32:11;12.68;;;2.85;;
25481;SDS011;13395;50.752;4.268;2023-09-19T03:34:37;11.90;;;1.92;;
25481;SDS011;13395;50.752;4.268;2023-09-19T03:37:08;8.35;;;2.50;;
25481;SDS011;13395;50.752;4.268;2023-09-19T03:39:34;9.82;;;2.08;;
25481;SDS011;13395;50.752;4.268;2023-09-19T03:42:00;18.33;;;3.95;;
25481;SDS011;13395;50.752;4.268;2023-09-19T03:44:29;12.10;;;2.33;;
25481;SDS011;13395;50.752;4.268;2023-09-19T03:46:55;9.18;;;2.50;;
25481;SDS011;13395;50.752;4.268;2023-09-19T03:49:21;13.07;;;2.30;;
25481;SDS011;13395;50.752;4.268;2023-09-19T03:51:47;15.50;;;3.22;;
25481;SDS011;13395;50.752;4.268;2023-09-19T03:54:13;14.13;;;2.03;;
25481;SDS011;13395;50.752;4.268;2023-09-19T03:56:38;13.30;;;2.78;;
25481;SDS011;13395;50.752;4.268;2023-09-19T03:59:04;13.48;;;2.08;;
25481;SDS011;13395;50.752;4.268;2023-09-19T04:01:30;15.93;;;2.10;;
25481;SDS011;13395;50.752;4.268;2023-09-19T04:03:57;13.95;;;2.92;;
25481;SDS011;13395;50.752;4.268;2023-09-19T04:06:23;10.32;;;2.10;;
25481;SDS011;13395;50.752;4.268;2023-09-19T04:08:49;14.07;;;2.53;;
25481;SDS011;13395;50.752;4.268;2023-09-19T04:11:14;16.83;;;2.88;;
25481;SDS011;13395;50.752;4.268;2023-09-19T04:13:40;11.75;;;3.25;;
25481;SDS011;13395;50.752;4.268;2023-09-19T04:16:06;11.27;;;1.88;;
25481;SDS011;13395;50.752;4.268;2023-09-19T04:18:35;21.33;;;2.35;;
25481;SDS011;13395;50.752;4.268;2023-09-19T04:21:03;13.98;;;2.42;;
25481;SDS011;13395;50.752;4.268;2023-09-19T04:23:29;18.83;;;2.80;;
25481;SDS011;13395;50.752;4.268;2023-09-19T04:25:55;7.47;;;1.50;;
25481;SDS011;13395;50.752;4.268;2023-09-19T04:28:20;9.95;;;2.08;;
25481;SDS011;13395;50.752;4.268;2023-09-19T04:30:46;16.75;;;3.50;;
25481;SDS011;13395;50.752;4.268;2023-09-19T04:33:11;12.05;;;1.65;;
25481;SDS011;13395;50.752;4.268;2023-09-19T04:35:39;12.77;;;2.55;;
25481;SDS011;13395;50.752;4.268;2023-09-19T04:38:07;18.00;;;2.33;;
25481;SDS011;13395;50.752;4.268;2023-09-19T04:40:33;12.10;;;2.05;;
25481;SDS011;13395;50.752;4.268;2023-09-19T04:42:59;17.90;;;2.60;;
25481;SDS011;13395;50.752;4.268;2023-09-19T04:45:25;14.90;;;2.35;;
25481;SDS011;13395;50.752;4.268;2023-09-19T04:47:52;16.77;;;2.25;;
25481;SDS011;13395;50.752;4.268;2023-09-19T04:50:18;7.95;;;1.83;;
25481;SDS011;13395;50.752;4.268;2023-09-19T04:52:44;16.77;;;2.22;;
25481;SDS011;13395;50.752;4.268;2023-09-19T04:55:13;15.40;;;2.42;;
25481;SDS011;13395;50.752;4.268;2023-09-19T04:57:45;10.68;;;1.95;;
25481;SDS011;13395;50.752;4.268;2023-09-19T05:00:13;12.80;;;2.47;;
25481;SDS011;13395;50.752;4.268;2023-09-19T05:02:41;14.48;;;2.22;;
25481;SDS011;13395;50.752;4.268;2023-09-19T05:05:07;17.33;;;1.80;;
25481;SDS011;13395;50.752;4.268;2023-09-19T05:07:35;15.20;;;2.80;;
25481;SDS011;13395;50.752;4.268;2023-09-19T05:10:01;18.92;;;2.35;;
25481;SDS011;13395;50.752;4.268;2023-09-19T05:12:30;12.65;;;2.38;;
25481;SDS011;13395;50.752;4.268;2023-09-19T05:14:57;13.00;;;2.10;;
25481;SDS011;13395;50.752;4.268;2023-09-19T05:17:22;14.35;;;1.90;;
25481;SDS011;13395;50.752;4.268;2023-09-19T05:19:49;11.82;;;2.63;;
25481;SDS011;13395;50.752;4.268;2023-09-19T05:22:15;12.85;;;2.15;;
25481;SDS011;13395;50.752;4.268;2023-09-19T05:24:40;12.10;;;2.13;;
25481;SDS011;13395;50.752;4.268;2023-09-19T05:27:06;11.68;;;2.17;;
25481;SDS011;13395;50.752;4.268;2023-09-19T05:29:32;11.88;;;2.72;;
25481;SDS011;13395;50.752;4.268;2023-09-19T05:31:58;18.48;;;2.22;;
25481;SDS011;13395;50.752;4.268;2023-09-19T05:34:24;14.85;;;2.10;;
25481;SDS011;13395;50.752;4.268;2023-09-19T05:36:53;14.00;;;3.25;;
25481;SDS011;13395;50.752;4.268;2023-09-19T05:39:19;11.30;;;1.70;;
25481;SDS011;13395;50.752;4.268;2023-09-19T05:41:45;13.30;;;2.95;;
25481;SDS011;13395;50.752;4.268;2023-09-19T05:44:12;15.48;;;2.30;;
25481;SDS011;13395;50.752;4.268;2023-09-19T05:46:39;10.50;;;2.17;;
25481;SDS011;13395;50.752;4.268;2023-09-19T05:49:04;13.00;;;1.83;;
25481;SDS011;13395;50.752;4.268;2023-09-19T05:51:30;17.77;;;2.78;;
25481;SDS011;13395;50.752;4.268;2023-09-19T05:53:56;8.52;;;1.80;;
25481;SDS011;13395;50.752;4.268;2023-09-19T05:56:22;13.15;;;2.20;;
25481;SDS011;13395;50.752;4.268;2023-09-19T05:58:48;14.27;;;2.33;;
25481;SDS011;13395;50.752;4.268;2023-09-19T06:01:17;17.58;;;2.55;;
25481;SDS011;13395;50.752;4.268;2023-09-19T06:03:43;11.07;;;2.08;;
25481;SDS011;13395;50.752;4.268;2023-09-19T06:06:08;7.95;;;2.00;;
25481;SDS011;13395;50.752;4.268;2023-09-19T06:08:34;12.68;;;2.72;;
25481;SDS011;13395;50.752;4.268;2023-09-19T06:11:00;11.85;;;2.47;;
25481;SDS011;13395;50.752;4.268;2023-09-19T06:13:27;22.85;;;2.97;;
25481;SDS011;13395;50.752;4.268;2023-09-19T06:15:54;12.85;;;1.80;;
25481;SDS011;13395;50.752;4.268;2023-09-19T06:18:21;12.10;;;1.90;;
25481;SDS011;13395;50.752;4.268;2023-09-19T06:20:51;11.93;;;2.10;;
25481;SDS011;13395;50.752;4.268;2023-09-19T06:23:17;12.35;;;2.65;;
25481;SDS011;13395;50.752;4.268;2023-09-19T06:25:45;10.73;;;1.88;;
25481;SDS011;13395;50.752;4.268;2023-09-19T06:28:10;9.52;;;2.50;;
25481;SDS011;13395;50.752;4.268;2023-09-19T06:30:39;10.85;;;2.42;;
25481;SDS011;13395;50.752;4.268;2023-09-19T06:33:05;10.18;;;1.67;;
25481;SDS011;13395;50.752;4.268;2023-09-19T06:35:32;17.08;;;2.38;;
25481;SDS011;13395;50.752;4.268;2023-09-19T06:37:58;22.45;;;3.38;;
25481;SDS011;13395;50.752;4.268;2023-09-19T06:40:24;14.05;;;3.38;;
25481;SDS011;13395;50.752;4.268;2023-09-19T06:42:53;9.20;;;1.48;;
25481;SDS011;13395;50.752;4.268;2023-09-19T06:45:19;8.40;;;2.03;;
25481;SDS011;13395;50.752;4.268;2023-09-19T06:47:46;16.58;;;2.22;;
25481;SDS011;13395;50.752;4.268;2023-09-19T06:50:19;7.47;;;2.03;;
25481;SDS011;13395;50.752;4.268;2023-09-19T06:52:47;9.63;;;1.90;;
25481;SDS011;13395;50.752;4.268;2023-09-19T06:55:15;15.45;;;2.40;;
25481;SDS011;13395;50.752;4.268;2023-09-19T06:57:44;8.30;;;1.67;;
25481;SDS011;13395;50.752;4.268;2023-09-19T07:00:10;12.40;;;2.10;;
25481;SDS011;13395;50.752;4.268;2023-09-19T07:03:01;12.98;;;1.80;;
25481;SDS011;13395;50.752;4.268;2023-09-19T07:05:28;9.32;;;2.00;;
25481;SDS011;13395;50.752;4.268;2023-09-19T07:07:56;11.00;;;2.22;;
25481;SDS011;13395;50.752;4.268;2023-09-19T07:10:24;16.80;;;2.38;;
25481;SDS011;13395;50.752;4.268;2023-09-19T07:13:00;16.23;;;2.97;;
25481;SDS011;13395;50.752;4.268;2023-09-19T07:15:28;5.70;;;1.60;;
25481;SDS011;13395;50.752;4.268;2023-09-19T07:17:55;13.32;;;1.95;;
25481;SDS011;13395;50.752;4.268;2023-09-19T07:20:21;17.85;;;2.15;;
25481;SDS011;13395;50.752;4.268;2023-09-19T07:22:51;8.38;;;1.80;;
25481;SDS011;13395;50.752;4.268;2023-09-19T07:25:19;12.57;;;2.00;;
25481;SDS011;13395;50.752;4.268;2023-09-19T07:27:45;14.18;;;2.00;;
25481;SDS011;13395;50.752;4.268;2023-09-19T07:30:11;10.40;;;2.13;;
25481;SDS011;13395;50.752;4.268;2023-09-19T07:32:37;10.38;;;2.47;;
25481;SDS011;13395;50.752;4.268;2023-09-19T07:35:04;15.45;;;3.17;;
25481;SDS011;13395;50.752;4.268;2023-09-19T07:37:33;8.73;;;1.80;;
25481;SDS011;13395;50.752;4.268;2023-09-19T07:40:00;9.52;;;2.42;;
25481;SDS011;13395;50.752;4.268;2023-09-19T07:42:35;12.18;;;2.33;;
25481;SDS011;13395;50.752;4.268;2023-09-19T07:45:04;9.90;;;1.83;;
25481;SDS011;13395;50.752;4.268;2023-09-19T07:47:30;8.73;;;1.80;;
25481;SDS011;13395;50.752;4.268;2023-09-19T07:49:57;13.30;;;2.03;;
25481;SDS011;13395;50.752;4.268;2023-09-19T07:52:23;11.05;;;2.42;;
25481;SDS011;13395;50.752;4.268;2023-09-19T07:54:49;15.75;;;2.78;;
25481;SDS011;13395;50.752;4.268;2023-09-19T07:57:15;8.70;;;1.80;;
25481;SDS011;13395;50.752;4.268;2023-09-19T07:59:41;10.23;;;2.38;;
25481;SDS011;13395;50.752;4.268;2023-09-19T08:02:08;12.38;;;1.83;;
25481;SDS011;13395;50.752;4.268;2023-09-19T08:04:40;14.18;;;2.67;;
25481;SDS011;13395;50.752;4.268;2023-09-19T08:07:11;10.13;;;2.10;;
25481;SDS011;13395;50.752;4.268;2023-09-19T08:09:47;10.10;;;2.67;;
25481;SDS011;13395;50.752;4.268;2023-09-19T08:12:16;9.80;;;2.63;;
25481;SDS011;13395;50.752;4.268;2023-09-19T08:14:42;8.25;;;1.90;;
25481;SDS011;13395;50.752;4.268;2023-09-19T08:17:07;12.73;;;1.90;;
25481;SDS011;13395;50.752;4.268;2023-09-19T08:19:33;8.25;;;2.65;;
25481;SDS011;13395;50.752;4.268;2023-09-19T08:21:59;13.45;;;1.92;;
25481;SDS011;13395;50.752;4.268;2023-09-19T08:24:26;12.15;;;1.95;;
25481;SDS011;13395;50.752;4.268;2023-09-19T08:26:56;10.52;;;2.28;;
25481;SDS011;13395;50.752;4.268;2023-09-19T08:29:25;8.70;;;2.45;;
25481;SDS011;13395;50.752;4.268;2023-09-19T08:31:59;13.63;;;2.30;;
25481;SDS011;13395;50.752;4.268;2023-09-19T08:42:10;11.10;;;2.30;;
25481;SDS011;13395;50.752;4.268;2023-09-19T08:44:37;13.93;;;2.00;;
25481;SDS011;13395;50.752;4.268;2023-09-19T08:47:09;7.93;;;2.08;;
25481;SDS011;13395;50.752;4.268;2023-09-19T08:59:58;6.10;;;2.05;;
25481;SDS011;13395;50.752;4.268;2023-09-19T09:02:24;6.25;;;1.85;;
25481;SDS011;13395;50.752;4.268;2023-09-19T09:04:52;11.40;;;1.92;;
25481;SDS011;13395;50.752;4.268;2023-09-19T09:07:19;8.15;;;2.00;;
25481;SDS011;13395;50.752;4.268;2023-09-19T09:09:46;6.43;;;1.50;;
25481;SDS011;13395;50.752;4.268;2023-09-19T09:12:14;5.30;;;1.58;;
25481;SDS011;13395;50.752;4.268;2023-09-19T09:14:43;5.88;;;1.58;;
25481;SDS011;13395;50.752;4.268;2023-09-19T09:17:11;21.88;;;1.80;;
25481;SDS011;13395;50.752;4.268;2023-09-19T09:19:37;9.30;;;1.77;;
25481;SDS011;13395;50.752;4.268;2023-09-19T09:22:09;8.07;;;1.52;;
25481;SDS011;13395;50.752;4.268;2023-09-19T09:24:36;7.82;;;1.30;;
25481;SDS011;13395;50.752;4.268;2023-09-19T09:27:04;11.32;;;1.67;;
25481;SDS011;13395;50.752;4.268;2023-09-19T09:34:44;6.53;;;1.30;;
25481;SDS011;13395;50.752;4.268;2023-09-19T09:37:13;9.90;;;1.73;;
25481;SDS011;13395;50.752;4.268;2023-09-19T09:42:28;6.30;;;1.50;;
25481;SDS011;13395;50.752;4.268;2023-09-19T09:45:19;6.47;;;2.10;;
25481;SDS011;13395;50.752;4.268;2023-09-19T09:47:58;9.48;;;1.50;;
25481;SDS011;13395;50.752;4.268;2023-09-19T09:50:29;8.05;;;1.67;;
25481;SDS011;13395;50.752;4.268;2023-09-19T09:53:21;6.72;;;1.60;;
25481;SDS011;13395;50.752;4.268;2023-09-19T09:55:56;11.38;;;1.30;;
25481;SDS011;13395;50.752;4.268;2023-09-19T09:58:53;5.45;;;1.05;;
25481;SDS011;13395;50.752;4.268;2023-09-19T10:01:20;8.90;;;1.73;;
25481;SDS011;13395;50.752;4.268;2023-09-19T10:03:51;10.23;;;1.33;;
25481;SDS011;13395;50.752;4.268;2023-09-19T10:06:22;5.55;;;1.48;;
25481;SDS011;13395;50.752;4.268;2023-09-19T10:12:03;7.85;;;1.27;;
25481;SDS011;13395;50.752;4.268;2023-09-19T10:14:33;5.95;;;1.67;;
25481;SDS011;13395;50.752;4.268;2023-09-19T10:17:03;6.10;;;1.20;;
25481;SDS011;13395;50.752;4.268;2023-09-19T10:19:37;4.38;;;1.10;;
25481;SDS011;13395;50.752;4.268;2023-09-19T10:22:11;6.97;;;0.93;;
25481;SDS011;13395;50.752;4.268;2023-09-19T10:24:45;8.40;;;1.30;;
25481;SDS011;13395;50.752;4.268;2023-09-19T10:27:15;5.35;;;0.95;;
25481;SDS011;13395;50.752;4.268;2023-09-19T10:29:45;6.70;;;1.25;;
25481;SDS011;13395;50.752;4.268;2023-09-19T10:32:19;9.33;;;1.30;;
25481;SDS011;13395;50.752;4.268;2023-09-19T10:34:49;7.85;;;1.55;;
25481;SDS011;13395;50.752;4.268;2023-09-19T10:37:16;5.03;;;0.90;;
25481;SDS011;13395;50.752;4.268;2023-09-19T10:39:45;7.47;;;1.42;;
25481;SDS011;13395;50.752;4.268;2023-09-19T10:42:11;3.45;;;0.93;;
25481;SDS011;13395;50.752;4.268;2023-09-19T10:44:42;9.30;;;1.48;;
25481;SDS011;13395;50.752;4.268;2023-09-19T10:47:10;3.80;;;1.00;;
25481;SDS011;13395;50.752;4.268;2023-09-19T10:49:42;3.67;;;1.00;;
25481;SDS011;13395;50.752;4.268;2023-09-19T10:52:11;4.70;;;1.00;;
25481;SDS011;13395;50.752;4.268;2023-09-19T10:54:48;5.20;;;1.10;;
25481;SDS011;13395;50.752;4.268;2023-09-19T10:57:20;6.53;;;1.00;;
25481;SDS011;13395;50.752;4.268;2023-09-19T11:00:02;5.65;;;1.10;;
25481;SDS011;13395;50.752;4.268;2023-09-19T11:05:36;5.43;;;0.90;;
25481;SDS011;13395;50.752;4.268;2023-09-19T11:08:05;5.63;;;1.33;;
25481;SDS011;13395;50.752;4.268;2023-09-19T11:10:53;2.80;;;0.70;;
25481;SDS011;13395;50.752;4.268;2023-09-19T11:13:31;3.63;;;0.73;;
25481;SDS011;13395;50.752;4.268;2023-09-19T11:26:49;5.55;;;0.90;;
25481;SDS011;13395;50.752;4.268;2023-09-19T11:29:26;7.55;;;1.08;;
25481;SDS011;13395;50.752;4.268;2023-09-19T11:31:54;8.20;;;0.85;;
25481;SDS011;13395;50.752;4.268;2023-09-19T11:39:40;4.85;;;0.90;;
25481;SDS011;13395;50.752;4.268;2023-09-19T11:42:41;5.65;;;1.35;;
25481;SDS011;13395;50.752;4.268;2023-09-19T11:48:22;2.97;;;0.93;;
25481;SDS011;13395;50.752;4.268;2023-09-19T11:50:50;5.90;;;1.40;;
25481;SDS011;13395;50.752;4.268;2023-09-19T11:53:17;5.78;;;1.23;;
25481;SDS011;13395;50.752;4.268;2023-09-19T11:55:45;5.72;;;1.23;;
25481;SDS011;13395;50.752;4.268;2023-09-19T11:58:11;9.40;;;1.15;;
25481;SDS011;13395;50.752;4.268;2023-09-19T12:00:39;5.53;;;1.05;;
25481;SDS011;13395;50.752;4.268;2023-09-19T12:03:09;7.10;;;1.30;;
25481;SDS011;13395;50.752;4.268;2023-09-19T12:05:36;8.23;;;0.93;;
25481;SDS011;13395;50.752;4.268;2023-09-19T12:08:03;3.40;;;0.82;;
25481;SDS011;13395;50.752;4.268;2023-09-19T12:10:32;8.07;;;1.00;;
25481;SDS011;13395;50.752;4.268;2023-09-19T12:12:58;3.72;;;1.00;;
25481;SDS011;13395;50.752;4.268;2023-09-19T12:15:27;6.05;;;0.70;;
25481;SDS011;13395;50.752;4.268;2023-09-19T12:20:24;7.85;;;1.00;;
25481;SDS011;13395;50.752;4.268;2023-09-19T12:22:50;6.03;;;0.90;;
25481;SDS011;13395;50.752;4.268;2023-09-19T12:25:16;6.03;;;1.00;;
25481;SDS011;13395;50.752;4.268;2023-09-19T12:27:43;4.68;;;1.40;;
25481;SDS011;13395;50.752;4.268;2023-09-19T12:30:11;7.32;;;0.85;;
25481;SDS011;13395;50.752;4.268;2023-09-19T12:32:43;9.45;;;1.13;;
25481;SDS011;13395;50.752;4.268;2023-09-19T12:35:09;3.28;;;0.90;;
25481;SDS011;13395;50.752;4.268;2023-09-19T12:37:44;4.28;;;1.02;;
25481;SDS011;13395;50.752;4.268;2023-09-19T12:40:17;4.10;;;0.95;;
25481;SDS011;13395;50.752;4.268;2023-09-19T12:42:50;5.40;;;0.90;;
25481;SDS011;13395;50.752;4.268;2023-09-19T12:45:18;13.32;;;1.23;;
25481;SDS011;13395;50.752;4.268;2023-09-19T12:51:05;5.07;;;1.00;;
25481;SDS011;13395;50.752;4.268;2023-09-19T12:53:33;3.42;;;0.95;;
25481;SDS011;13395;50.752;4.268;2023-09-19T12:56:03;9.13;;;0.98;;
25481;SDS011;13395;50.752;4.268;2023-09-19T12:58:33;5.22;;;0.90;;
25481;SDS011;13395;50.752;4.268;2023-09-19T13:01:00;3.30;;;0.93;;
25481;SDS011;13395;50.752;4.268;2023-09-19T13:03:27;4.55;;;0.90;;
25481;SDS011;13395;50.752;4.268;2023-09-19T13:11:10;2.47;;;0.75;;
25481;SDS011;13395;50.752;4.268;2023-09-19T13:13:48;4.35;;;1.00;;
25481;SDS011;13395;50.752;4.268;2023-09-19T13:16:19;5.50;;;0.82;;
25481;SDS011;13395;50.752;4.268;2023-09-19T13:18:51;4.55;;;1.10;;
25481;SDS011;13395;50.752;4.268;2023-09-19T13:21:32;3.97;;;0.63;;
25481;SDS011;13395;50.752;4.268;2023-09-19T13:24:21;6.80;;;1.58;;
25481;SDS011;13395;50.752;4.268;2023-09-19T13:26:55;6.03;;;1.10;;
25481;SDS011;13395;50.752;4.268;2023-09-19T13:29:21;6.90;;;0.80;;
25481;SDS011;13395;50.752;4.268;2023-09-19T13:31:48;2.55;;;0.68;;
25481;SDS011;13395;50.752;4.268;2023-09-19T13:34:14;2.70;;;0.75;;
25481;SDS011;13395;50.752;4.268;2023-09-19T13:36:42;6.32;;;0.90;;
25481;SDS011;13395;50.752;4.268;2023-09-19T13:39:08;6.03;;;1.08;;
25481;SDS011;13395;50.752;4.268;2023-09-19T13:41:34;4.45;;;1.00;;
25481;SDS011;13395;50.752;4.268;2023-09-19T13:44:02;2.97;;;0.95;;
25481;SDS011;13395;50.752;4.268;2023-09-19T13:51:39;11.80;;;1.85;;
25481;SDS011;13395;50.752;4.268;2023-09-19T13:56:43;3.72;;;1.33;;
25481;SDS011;13395;50.752;4.268;2023-09-19T13:59:09;3.75;;;1.35;;
25481;SDS011;13395;50.752;4.268;2023-09-19T14:01:35;5.57;;;1.15;;
25481;SDS011;13395;50.752;4.268;2023-09-19T14:04:00;5.55;;;1.80;;
25481;SDS011;13395;50.752;4.268;2023-09-19T14:06:27;6.07;;;1.00;;
25481;SDS011;13395;50.752;4.268;2023-09-19T14:08:52;9.70;;;1.83;;
25481;SDS011;13395;50.752;4.268;2023-09-19T14:11:18;4.50;;;1.52;;
25481;SDS011;13395;50.752;4.268;2023-09-19T14:13:45;5.22;;;1.25;;
25481;SDS011;13395;50.752;4.268;2023-09-19T14:16:13;3.97;;;1.10;;
25481;SDS011;13395;50.752;4.268;2023-09-19T14:18:38;8.60;;;1.98;;
25481;SDS011;13395;50.752;4.268;2023-09-19T14:21:05;6.05;;;1.00;;
25481;SDS011;13395;50.752;4.268;2023-09-19T14:23:35;5.78;;;1.10;;
25481;SDS011;13395;50.752;4.268;2023-09-19T14:26:01;4.00;;;1.00;;
25481;SDS011;13395;50.752;4.268;2023-09-19T14:28:27;4.95;;;1.10;;
25481;SDS011;13395;50.752;4.268;2023-09-19T14:30:54;4.50;;;1.27;;
25481;SDS011;13395;50.752;4.268;2023-09-19T14:33:20;11.32;;;1.77;;
25481;SDS011;13395;50.752;4.268;2023-09-19T14:35:46;7.78;;;1.13;;
25481;SDS011;13395;50.752;4.268;2023-09-19T14:38:11;5.35;;;1.30;;
25481;SDS011;13395;50.752;4.268;2023-09-19T14:40:37;6.35;;;1.02;;
25481;SDS011;13395;50.752;4.268;2023-09-19T14:43:04;11.05;;;1.17;;
25481;SDS011;13395;50.752;4.268;2023-09-19T14:45:30;3.08;;;1.10;;
25481;SDS011;13395;50.752;4.268;2023-09-19T14:47:56;11.23;;;1.38;;
25481;SDS011;13395;50.752;4.268;2023-09-19T14:50:22;6.20;;;1.10;;
25481;SDS011;13395;50.752;4.268;2023-09-19T14:52:47;7.10;;;2.05;;
25481;SDS011;13395;50.752;4.268;2023-09-19T14:55:16;8.90;;;1.58;;
25481;SDS011;13395;50.752;4.268;2023-09-19T14:57:42;6.57;;;1.35;;
25481;SDS011;13395;50.752;4.268;2023-09-19T15:00:11;3.70;;;1.70;;
25481;SDS011;13395;50.752;4.268;2023-09-19T15:02:38;7.68;;;1.55;;
25481;SDS011;13395;50.752;4.268;2023-09-19T15:05:07;5.85;;;1.55;;
25481;SDS011;13395;50.752;4.268;2023-09-19T15:07:34;6.18;;;1.23;;
25481;SDS011;13395;50.752;4.268;2023-09-19T15:10:02;8.13;;;2.22;;
25481;SDS011;13395;50.752;4.268;2023-09-19T15:12:28;5.95;;;1.40;;
25481;SDS011;13395;50.752;4.268;2023-09-19T15:14:54;6.72;;;1.42;;
25481;SDS011;13395;50.752;4.268;2023-09-19T15:17:19;3.03;;;1.27;;
25481;SDS011;13395;50.752;4.268;2023-09-19T15:19:45;5.70;;;1.08;;
25481;SDS011;13395;50.752;4.268;2023-09-19T15:22:11;5.38;;;1.13;;
25481;SDS011;13395;50.752;4.268;2023-09-19T15:24:37;6.47;;;1.63;;
25481;SDS011;13395;50.752;4.268;2023-09-19T15:27:03;5.57;;;1.42;;
25481;SDS011;13395;50.752;4.268;2023-09-19T15:29:29;6.90;;;1.27;;
25481;SDS011;13395;50.752;4.268;2023-09-19T15:31:55;5.85;;;1.08;;
25481;SDS011;13395;50.752;4.268;2023-09-19T15:34:23;4.82;;;1.05;;
25481;SDS011;13395;50.752;4.268;2023-09-19T15:36:50;6.70;;;0.93;;
25481;SDS011;13395;50.752;4.268;2023-09-19T15:39:16;6.28;;;1.63;;
25481;SDS011;13395;50.752;4.268;2023-09-19T15:41:44;5.55;;;1.10;;
25481;SDS011;13395;50.752;4.268;2023-09-19T15:44:11;3.85;;;1.17;;
25481;SDS011;13395;50.752;4.268;2023-09-19T15:46:38;6.22;;;1.25;;
25481;SDS011;13395;50.752;4.268;2023-09-19T15:49:04;8.35;;;1.45;;
25481;SDS011;13395;50.752;4.268;2023-09-19T15:51:30;4.20;;;1.05;;
25481;SDS011;13395;50.752;4.268;2023-09-19T15:53:55;3.30;;;0.90;;
25481;SDS011;13395;50.752;4.268;2023-09-19T15:56:22;5.50;;;1.58;;
25481;SDS011;13395;50.752;4.268;2023-09-19T15:58:52;7.85;;;1.30;;
25481;SDS011;13395;50.752;4.268;2023-09-19T16:01:18;8.07;;;2.10;;
25481;SDS011;13395;50.752;4.268;2023-09-19T16:03:46;3.88;;;1.00;;
25481;SDS011;13395;50.752;4.268;2023-09-19T16:06:21;5.80;;;1.55;;
25481;SDS011;13395;50.752;4.268;2023-09-19T16:08:49;6.05;;;1.40;;
25481;SDS011;13395;50.752;4.268;2023-09-19T16:11:16;3.58;;;1.00;;